Terminal Aerodrome Forecast
Issued by NWS Quad Cities IA IL

Home | Current Version | Previous Version | Text Only | Print | Product List | Glossary On
Versions: 1 2 3 4 5 6 7 8 9 10 11 12 13 14 15 16 17 18 19 20 21 22 23 24 25 26 27 28
883
FTUS43 KDVN 211120
TAFDBQ
TAF
KDBQ 211120Z 2112/2212 06010KT P6SM -SHRA SCT010 OVC025
      TEMPO 2112/2115 3SM -SHRA BR OVC007
     FM211700 08008KT 5SM BR OVC008
     FM212000 04006KT P6SM BKN012
     FM220600 35004KT 2SM BR OVC004=

USA.gov is the U.S. government's official web portal to all federal, state and local government web resources and services.